Time;durP1;ratioP1;P1;durP2;ratioP2;P2;SDS_P1;SDS_P2;PMS_P1;PMS_P2;Temp;Humidity;BMP_temperature;BMP_pressure;BME280_temperature;BME280_humidity;BME280_pressure;Samples;Min_cycle;Max_cycle;Signal;HPM_P1;HPM_P2
2022/06/09 00:02:16;;;;;;;31.90;5.63;;;;;;;16.53;63.83;100785.41;5223878;28;20805;-53
2022/06/09 00:04:50;;;;;;;29.63;6.63;;;;;;;16.52;63.92;100776.59;5217719;28;23582;-58
2022/06/09 00:07:24;;;;;;;25.15;6.05;;;;;;;16.56;63.97;100791.19;5227308;28;20415;-56
2022/06/09 00:10:03;;;;;;;28.10;6.32;;;;;;;16.54;64.04;100793.22;5225600;28;20416;-54
2022/06/09 00:12:36;;;;;;;25.83;6.60;;;;;;;16.57;64.00;100797.38;5220849;28;20407;-56
2022/06/09 00:15:13;;;;;;;29.57;5.83;;;;;;;16.60;64.01;100802.31;5227505;28;20792;-56
2022/06/09 00:17:46;;;;;;;28.83;6.35;;;;;;;16.47;63.91;100784.31;5227102;28;20454;-55
2022/06/09 00:20:20;;;;;;;36.83;7.10;;;;;;;16.50;64.14;100794.59;5227806;28;20535;-57
2022/06/09 00:22:53;;;;;;;33.05;6.38;;;;;;;16.60;64.09;100812.97;5226130;28;21886;-54
2022/06/09 00:25:25;;;;;;;33.17;6.43;;;;;;;16.57;64.27;100811.50;5228566;28;20412;-55
2022/06/09 00:27:58;;;;;;;29.38;6.35;;;;;;;16.58;64.17;100802.50;5227108;28;20753;-56
2022/06/09 00:30:32;;;;;;;29.80;5.82;;;;;;;16.61;64.17;100811.97;5223663;28;20487;-52
2022/06/09 00:33:04;;;;;;;18.87;5.40;;;;;;;16.54;64.21;100801.22;5226216;28;20506;-56
2022/06/09 00:35:38;;;;;;;17.98;4.75;;;;;;;16.61;64.18;100814.63;5224848;28;20974;-56
2022/06/09 00:38:11;;;;;;;28.45;5.53;;;;;;;16.62;64.50;100815.44;5225768;28;20504;-56
2022/06/09 00:40:43;;;;;;;20.83;5.43;;;;;;;16.58;64.50;100815.81;5222993;28;20431;-53
2022/06/09 00:43:16;;;;;;;24.15;5.22;;;;;;;16.56;64.24;100812.50;5226116;28;21157;-57
2022/06/09 00:46:03;;;;;;;22.57;5.93;;;;;;;16.35;64.45;100812.50;5217059;28;20831;-53
2022/06/09 00:48:45;;;;;;;17.63;5.72;;;;;;;16.53;64.46;100839.56;5223350;28;20527;-54
2022/06/09 00:51:30;;;;;;;16.00;4.88;;;;;;;16.35;64.57;100805.34;5215667;28;20980;-53
2022/06/09 00:54:39;;;;;;;24.80;4.67;;;;;;;16.49;64.58;100832.94;5211069;28;20419;-52
2022/06/09 00:57:16;;;;;;;18.63;4.13;;;;;;;16.48;64.43;100833.16;5223263;28;20492;-55
2022/06/09 00:59:53;;;;;;;23.67;4.87;;;;;;;16.43;64.50;100833.72;5226223;28;21357;-54
2022/06/09 01:02:27;;;;;;;19.67;5.57;;;;;;;16.46;64.57;100843.16;5224435;28;20426;-55
2022/06/09 01:05:02;;;;;;;19.48;5.60;;;;;;;16.22;64.61;100809.69;5217893;28;20423;-55
2022/06/09 01:07:42;;;;;;;25.05;5.57;;;;;;;16.40;64.55;100852.75;5220052;28;20848;-54
2022/06/09 01:10:15;;;;;;;19.85;4.32;;;;;;;16.40;64.48;100849.25;5221979;28;21033;-56
2022/06/09 01:12:49;;;;;;;22.03;5.07;;;;;;;15.95;64.43;100820.03;5227641;28;20469;-55
2022/06/09 01:15:28;;;;;;;24.38;5.38;;;;;;;16.33;64.63;100849.19;5226182;28;20411;-57
2022/06/09 01:18:11;;;;;;;20.98;6.00;;;;;;;16.09;64.48;100813.03;5222602;28;20868;-56
2022/06/09 01:20:51;;;;;;;24.25;5.53;;;;;;;16.29;64.58;100853.22;5226298;28;20836;-55
2022/06/09 01:24:06;;;;;;;25.07;6.27;;;;;;;16.22;64.80;100846.97;5227317;28;20426;-60
2022/06/09 01:27:14;;;;;;;21.90;4.85;;;;;;;16.23;64.68;100859.28;5211085;28;20410;-58
2022/06/09 01:29:56;;;;;;;24.55;5.32;;;;;;;16.13;64.63;100849.78;5226611;28;20518;-57
2022/06/09 01:32:34;;;;;;;26.30;5.97;;;;;;;16.19;64.49;100860.69;5227140;28;20411;-48
2022/06/09 01:35:18;;;;;;;19.45;6.03;;;;;;;16.17;64.70;100881.38;5224637;28;20804;-57
2022/06/09 01:37:55;;;;;;;28.40;5.65;;;;;;;16.11;64.65;100867.78;5223297;28;20418;-56
2022/06/09 01:40:29;;;;;;;19.20;5.33;;;;;;;15.71;64.75;100817.66;5225068;28;20505;-54
2022/06/09 01:43:03;;;;;;;17.63;5.45;;;;;;;16.05;64.75;100873.84;5222312;28;20482;-55
2022/06/09 01:45:42;;;;;;;19.58;5.78;;;;;;;16.02;64.69;100868.88;5227505;28;20427;-54
2022/06/09 01:48:18;;;;;;;20.90;5.72;;;;;;;16.00;64.68;100868.22;5228121;28;20416;-55
2022/06/09 01:50:56;;;;;;;25.95;5.47;;;;;;;16.00;64.64;100870.06;5228132;28;20481;-52
2022/06/09 01:53:33;;;;;;;22.52;6.05;;;;;;;15.96;64.65;100864.28;5220562;28;20749;-54
2022/06/09 01:56:15;;;;;;;22.00;6.10;;;;;;;15.96;64.69;100863.47;5221345;28;20442;-54
2022/06/09 01:58:51;;;;;;;18.48;5.78;;;;;;;15.93;64.68;100875.31;5223308;28;20802;-55
2022/06/09 02:01:27;;;;;;;15.18;5.32;;;;;;;15.90;64.69;100870.34;5224710;28;20411;-54
2022/06/09 02:04:06;;;;;;;18.15;5.38;;;;;;;15.82;64.73;100857.13;5221617;28;20470;-55
2022/06/09 02:06:39;;;;;;;14.85;5.20;;;;;;;15.86;64.76;100864.56;5224088;28;20776;-59
2022/06/09 02:09:11;;;;;;;12.98;4.15;;;;;;;15.84;64.76;100877.22;5225681;28;20427;-57
2022/06/09 02:11:50;;;;;;;15.20;4.00;;;;;;;15.73;64.88;100869.69;5226916;28;20971;-53
2022/06/09 02:14:27;;;;;;;11.88;3.95;;;;;;;15.80;65.03;100881.28;5226929;28;20400;-57
2022/06/09 02:17:00;;;;;;;14.10;4.38;;;;;;;15.72;64.87;100877.88;5219391;28;20419;-55
2022/06/09 02:19:34;;;;;;;9.60;3.65;;;;;;;15.55;64.92;100851.41;5226344;28;20423;-55
2022/06/09 02:22:10;;;;;;;10.18;3.88;;;;;;;15.75;64.85;100885.50;5227613;28;20485;-55
2022/06/09 02:24:42;;;;;;;7.30;3.83;;;;;;;15.75;64.83;100894.31;5224856;28;20443;-53
2022/06/09 02:27:15;;;;;;;14.75;4.72;;;;;;;15.68;65.01;100880.91;5224921;28;20542;-52
2022/06/09 02:29:48;;;;;;;9.48;4.20;;;;;;;15.72;65.08;100896.50;5219780;28;20767;-53
2022/06/09 02:32:20;;;;;;;10.17;5.07;;;;;;;15.60;65.00;100880.13;5225109;28;20417;-54
2022/06/09 02:34:54;;;;;;;9.95;4.22;;;;;;;15.68;64.93;100896.06;5223267;28;20747;-51
2022/06/09 02:37:27;;;;;;;14.95;5.40;;;;;;;15.66;65.00;100895.38;5226465;28;20419;-51
2022/06/09 02:39:59;;;;;;;12.75;4.80;;;;;;;15.60;65.23;100891.59;5228644;28;20457;-49
2022/06/09 02:42:31;;;;;;;15.80;5.45;;;;;;;15.51;65.00;100876.69;5228507;28;20457;-55
2022/06/09 02:45:04;;;;;;;12.88;5.90;;;;;;;15.70;65.12;100917.16;5228015;28;20406;-53
2022/06/09 02:47:37;;;;;;;13.70;6.13;;;;;;;15.68;65.07;100920.00;5228505;28;20468;-52
2022/06/09 02:50:12;;;;;;;16.43;6.53;;;;;;;15.53;65.41;100903.97;5231018;28;21475;-50
2022/06/09 02:52:44;;;;;;;16.38;6.60;;;;;;;15.67;65.19;100931.69;5222854;28;20416;-52
2022/06/09 02:55:17;;;;;;;15.68;5.22;;;;;;;15.64;65.22;100924.03;5221999;28;20480;-52
2022/06/09 02:57:49;;;;;;;9.05;4.30;;;;;;;15.62;65.09;100924.19;5230367;28;20482;-56
2022/06/09 03:00:22;;;;;;;10.07;3.63;;;;;;;15.62;65.28;100932.19;5230070;28;20857;-54
2022/06/09 03:02:58;;;;;;;9.52;3.95;;;;;;;15.59;65.28;100929.06;5227594;28;20408;-56
2022/06/09 03:05:35;;;;;;;11.90;3.53;;;;;;;15.56;65.37;100930.25;5225529;28;20784;-58
2022/06/09 03:08:09;;;;;;;16.38;3.97;;;;;;;15.62;65.40;100947.34;5227488;28;20465;-54
2022/06/09 03:10:41;;;;;;;8.07;3.47;;;;;;;15.61;65.40;100951.84;5226092;28;20503;-55
2022/06/09 03:13:14;;;;;;;9.18;3.25;;;;;;;15.60;65.28;100952.81;5229918;28;20504;-54
2022/06/09 03:15:48;;;;;;;11.20;3.97;;;;;;;15.61;65.29;100959.81;5226336;28;20488;-56
2022/06/09 03:18:20;;;;;;;13.80;3.63;;;;;;;15.60;65.16;100958.16;5229289;28;20404;-56
2022/06/09 03:20:54;;;;;;;13.07;4.18;;;;;;;15.60;65.45;100966.13;5226153;28;20747;-58
2022/06/09 03:23:27;;;;;;;11.73;3.60;;;;;;;15.59;65.42;100964.47;5229242;28;20938;-54
2022/06/09 03:25:59;;;;;;;13.73;3.63;;;;;;;15.48;65.03;100950.78;5227536;28;20518;-52
2022/06/09 03:28:32;;;;;;;11.88;3.03;;;;;;;15.52;65.33;100962.72;5227463;28;20425;-55
2022/06/09 03:31:04;;;;;;;12.70;4.40;;;;;;;15.58;65.40;100981.47;5226845;28;20432;-53
2022/06/09 03:33:37;;;;;;;11.48;4.18;;;;;;;15.57;65.48;100971.81;5226868;28;20725;-51
2022/06/09 03:36:12;;;;;;;14.15;3.42;;;;;;;15.57;65.60;100982.47;5226815;28;20427;-53
2022/06/09 03:38:45;;;;;;;13.05;3.50;;;;;;;15.59;65.46;100988.44;5228292;28;20749;-54
2022/06/09 03:41:17;;;;;;;11.27;3.65;;;;;;;15.61;65.46;100999.75;5228351;28;20844;-54
2022/06/09 03:43:50;;;;;;;15.15;3.25;;;;;;;15.61;65.55;100999.75;5224357;28;20388;-55
2022/06/09 03:46:22;;;;;;;13.95;3.22;;;;;;;15.62;65.48;101001.41;5225966;28;20437;-53
2022/06/09 03:48:55;;;;;;;13.27;3.75;;;;;;;15.63;65.65;101008.38;5223977;28;20419;-51
2022/06/09 03:51:28;;;;;;;9.27;3.80;;;;;;;15.62;65.56;101006.72;5228372;28;20407;-55
2022/06/09 03:54:01;;;;;;;12.63;3.95;;;;;;;15.58;65.31;101004.59;5225906;28;20443;-56
2022/06/09 03:56:33;;;;;;;14.57;4.63;;;;;;;15.65;65.53;101014.34;5230096;28;20905;-54
2022/06/09 03:59:06;;;;;;;19.70;3.90;;;;;;;15.51;65.50;100991.16;5227003;28;20888;-54
2022/06/09 04:01:38;;;;;;;16.58;3.92;;;;;;;15.68;65.57;101022.00;5228334;28;20423;-55
2022/06/09 04:04:11;;;;;;;19.48;4.35;;;;;;;15.72;65.55;101022.47;5222750;28;20420;-56
2022/06/09 04:06:44;;;;;;;15.17;4.20;;;;;;;15.72;65.51;101026.97;5228562;28;20420;-56
2022/06/09 04:09:17;;;;;;;13.52;3.92;;;;;;;15.76;65.39;101038.91;5228549;28;20968;-56
2022/06/09 04:11:49;;;;;;;14.95;4.32;;;;;;;15.78;65.35;101036.91;5225204;28;20407;-51
2022/06/09 04:14:22;;;;;;;24.75;4.13;;;;;;;15.81;65.45;101037.38;5227124;28;20396;-52
2022/06/09 04:16:55;;;;;;;11.32;4.30;;;;;;;15.85;65.35;101045.84;5224368;28;20565;-54
2022/06/09 04:19:28;;;;;;;11.73;3.80;;;;;;;15.80;65.53;101035.75;5228190;28;20425;-58
2022/06/09 04:22:02;;;;;;;11.05;3.42;;;;;;;15.91;65.39;101050.44;5226136;28;21094;-58
2022/06/09 04:24:35;;;;;;;10.70;3.60;;;;;;;15.97;65.47;101041.75;5226963;28;20905;-59
2022/06/09 04:27:07;;;;;;;16.92;4.63;;;;;;;15.96;65.46;101033.94;5227794;28;20415;-52
2022/06/09 04:29:40;;;;;;;13.80;4.00;;;;;;;16.09;65.48;101050.13;5226472;28;20918;-55
2022/06/09 04:32:12;;;;;;;13.70;4.70;;;;;;;16.14;65.46;101053.91;5226510;28;20404;-56
2022/06/09 04:34:45;;;;;;;10.55;3.42;;;;;;;16.19;65.45;101044.53;5228822;28;20442;-58
2022/06/09 04:37:19;;;;;;;11.10;3.50;;;;;;;16.23;65.46;101056.47;5228827;28;20824;-60
2022/06/09 04:39:51;;;;;;;14.43;4.40;;;;;;;16.25;65.46;101051.81;5224032;28;20439;-57
2022/06/09 04:42:24;;;;;;;17.55;4.10;;;;;;;16.30;65.43;101057.44;5228100;28;20423;-55
2022/06/09 04:44:57;;;;;;;10.52;3.35;;;;;;;16.33;65.47;101057.91;5225559;28;20453;-56
2022/06/09 04:47:29;;;;;;;10.37;3.47;;;;;;;16.38;65.52;101076.00;5224266;28;20494;-47
2022/06/09 04:50:04;;;;;;;10.02;3.25;;;;;;;16.43;65.43;101060.28;5225233;28;20499;-55
2022/06/09 04:52:38;;;;;;;10.15;3.25;;;;;;;16.55;65.44;101069.50;5226569;28;20678;-55
2022/06/09 04:55:12;;;;;;;10.02;2.95;;;;;;;16.72;65.39;101074.63;5222640;28;20530;-53
2022/06/09 04:57:44;;;;;;;8.30;3.60;;;;;;;16.89;65.43;101078.81;5222710;28;20438;-53
2022/06/09 05:00:20;;;;;;;15.30;2.83;;;;;;;17.09;65.37;101094.22;5225422;28;20543;-52
2022/06/09 05:02:52;;;;;;;7.90;2.60;;;;;;;17.25;65.11;101094.88;5226507;28;20514;-51
2022/06/09 05:05:28;;;;;;;9.43;2.72;;;;;;;17.50;65.06;101103.38;5222395;28;20411;-53
2022/06/09 05:08:02;;;;;;;6.32;2.20;;;;;;;18.48;63.88;101092.94;5226570;28;20400;-58
2022/06/09 05:10:35;;;;;;;6.10;2.22;;;;;;;20.14;62.27;101096.22;5219645;28;20411;-56
2022/06/09 05:13:08;;;;;;;9.32;1.63;;;;;;;21.80;60.46;101106.47;5227202;28;20877;-57
2022/06/09 05:15:49;;;;;;;6.70;1.38;;;;;;;23.21;58.82;101079.84;5221642;28;20412;-58
2022/06/09 05:18:26;;;;;;;6.85;1.48;;;;;;;24.75;57.16;101106.88;5214580;28;20453;-59
2022/06/09 05:21:00;;;;;;;9.38;1.60;;;;;;;25.98;55.42;101117.34;5223178;28;20931;-57
2022/06/09 05:23:34;;;;;;;8.25;1.40;;;;;;;26.33;54.14;101062.13;5223286;28;20498;-59
2022/06/09 05:26:08;;;;;;;7.50;1.40;;;;;;;26.38;54.35;101119.88;5228824;28;20438;-60
2022/06/09 05:28:40;;;;;;;7.40;1.30;;;;;;;27.12;53.00;101111.38;5228510;28;20427;-60
2022/06/09 05:31:12;;;;;;;7.03;1.40;;;;;;;27.47;52.06;101126.47;5226732;28;20408;-59
2022/06/09 05:33:45;;;;;;;8.73;1.70;;;;;;;27.66;51.06;101121.50;5225551;28;21087;-61
2022/06/09 05:36:17;;;;;;;5.80;1.55;;;;;;;27.07;51.21;101132.22;5226623;28;20982;-60
2022/06/09 05:47:22;;;;;;;6.70;1.37;;;;;;;24.21;52.33;101170.91;5220211;28;20920;-59
2022/06/09 05:49:55;;;;;;;6.33;1.50;;;;;;;23.86;52.26;101155.47;5221915;28;20654;-59
2022/06/09 05:52:30;;;;;;;7.28;1.67;;;;;;;24.09;52.01;101178.16;5222630;28;20427;-59
2022/06/09 05:55:05;;;;;;;9.60;1.98;;;;;;;24.87;51.04;101168.13;5218378;28;21010;-61
2022/06/09 05:57:38;;;;;;;4.80;1.35;;;;;;;25.69;49.91;101176.88;5220965;28;20415;-59
2022/06/09 06:00:12;;;;;;;4.40;1.17;;;;;;;26.98;48.16;101177.09;5210782;28;20510;-61
2022/06/09 06:02:45;;;;;;;5.18;1.35;;;;;;;28.34;46.48;101184.28;5218425;28;20403;-59
2022/06/09 06:08:04;;;;;;;7.20;1.52;;;;;;;30.35;43.86;101190.25;5221649;28;20884;-57
2022/06/09 06:10:39;;;;;;;4.90;1.35;;;;;;;31.22;42.41;101188.16;5211895;28;20498;-60
2022/06/09 06:13:12;;;;;;;4.55;1.15;;;;;;;31.83;41.58;101191.63;5222929;28;20901;-60
2022/06/09 06:15:44;;;;;;;7.97;1.63;;;;;;;32.42;40.57;101193.38;5221639;28;20431;-61
2022/06/09 06:18:17;;;;;;;8.07;1.20;;;;;;;32.98;39.99;101211.97;5226282;28;20426;-63
2022/06/09 06:20:49;;;;;;;7.75;1.48;;;;;;;33.54;39.11;101212.41;5220471;28;27812;-60
2022/06/09 06:23:22;;;;;;;7.22;1.40;;;;;;;34.06;38.67;101218.78;5227839;28;20430;-60
2022/06/09 06:25:57;;;;;;;5.87;1.53;;;;;;;34.31;38.27;101225.75;5222053;28;20944;-58
2022/06/09 06:28:30;;;;;;;5.85;1.33;;;;;;;34.47;37.89;101224.38;5220907;28;20419;-51
2022/06/09 06:31:02;;;;;;;4.43;1.20;;;;;;;34.67;37.28;101228.72;5219698;28;20466;-61
2022/06/09 06:33:35;;;;;;;5.77;1.30;;;;;;;34.86;37.07;101232.16;5224658;28;20653;-59
2022/06/09 06:36:11;;;;;;;4.63;1.27;;;;;;;35.13;36.32;101240.75;5221020;28;20887;-61
2022/06/09 06:38:47;;;;;;;7.53;1.45;;;;;;;35.29;36.11;101250.31;5222024;28;20465;-62
2022/06/09 06:41:21;;;;;;;8.88;1.63;;;;;;;35.43;35.80;101250.28;5223134;28;20394;-62
2022/06/09 06:43:53;;;;;;;9.20;1.48;;;;;;;35.48;35.55;101261.97;5215944;28;20503;-60
2022/06/09 06:46:26;;;;;;;5.63;1.40;;;;;;;35.34;35.62;101267.50;5221913;28;20419;-63
2022/06/09 06:48:59;;;;;;;4.43;1.38;;;;;;;35.13;35.41;101269.03;5221020;28;20432;-59
2022/06/09 06:51:32;;;;;;;6.82;1.33;;;;;;;34.35;35.81;101276.97;5212539;28;20412;-60
2022/06/09 06:54:06;;;;;;;7.18;1.63;;;;;;;33.49;36.24;101260.63;5222088;28;20407;-62
2022/06/09 06:56:39;;;;;;;9.70;1.75;;;;;;;32.74;36.43;101276.78;5223103;28;20408;-62
2022/06/09 06:59:12;;;;;;;6.70;1.50;;;;;;;32.03;36.76;101272.69;5225629;28;20580;-58
2022/06/09 07:01:44;;;;;;;6.90;1.60;;;;;;;31.41;37.01;101274.88;5223061;28;20435;-62
2022/06/09 07:04:17;;;;;;;7.95;1.90;;;;;;;30.92;37.24;101286.44;5223416;28;20907;-61
2022/06/09 07:06:49;;;;;;;10.90;2.10;;;;;;;30.32;37.75;101281.53;5226512;28;20585;-60
2022/06/09 07:09:21;;;;;;;6.80;1.33;;;;;;;29.96;37.81;101291.53;5222654;28;20741;-58
2022/06/09 07:11:55;;;;;;;5.00;1.20;;;;;;;30.10;37.87;101292.66;5227596;28;20768;-61
2022/06/09 07:14:31;;;;;;;11.82;2.10;;;;;;;30.44;37.46;101292.16;5223524;28;20411;-60
2022/06/09 07:17:05;;;;;;;7.22;2.03;;;;;;;30.81;36.94;101306.63;5223174;28;20454;-60
2022/06/09 07:19:37;;;;;;;6.07;1.40;;;;;;;30.73;36.77;101310.72;5229373;28;20427;-60
2022/06/09 07:22:09;;;;;;;14.00;2.20;;;;;;;30.65;36.74;101297.63;5227176;28;20442;-62
2022/06/09 07:24:43;;;;;;;7.53;2.05;;;;;;;30.94;36.83;101308.78;5226923;28;20407;-60
2022/06/09 07:27:17;;;;;;;10.48;2.20;;;;;;;30.83;36.60;101299.00;5223753;28;20426;-62
2022/06/09 07:29:49;;;;;;;6.65;1.70;;;;;;;30.97;36.45;101310.97;5227763;28;20480;-59
2022/06/09 07:32:22;;;;;;;10.23;1.92;;;;;;;30.69;36.42;101321.34;5227961;28;20428;-62
2022/06/09 07:34:54;;;;;;;21.13;3.53;;;;;;;30.72;36.45;101326.25;5226310;28;20749;-62
2022/06/09 07:37:27;;;;;;;7.90;1.52;;;;;;;30.83;36.47;101331.72;5226719;28;20416;-61
2022/06/09 07:39:59;;;;;;;11.93;1.70;;;;;;;30.89;36.54;101336.09;5225073;28;20429;-61
2022/06/09 07:42:33;;;;;;;8.32;2.10;;;;;;;30.83;36.58;101331.72;5223774;28;20502;-60
2022/06/09 07:45:09;;;;;;;9.77;2.15;;;;;;;30.84;36.36;101333.34;5228111;28;20842;-60
2022/06/09 07:47:41;;;;;;;10.18;2.15;;;;;;;30.90;36.42;101333.06;5223091;28;20419;-60
2022/06/09 07:50:15;;;;;;;6.70;1.77;;;;;;;30.89;36.44;101344.28;5222189;28;20423;-60
2022/06/09 07:52:49;;;;;;;8.10;1.98;;;;;;;30.87;36.09;101354.63;5221477;28;20787;-60
2022/06/09 07:55:22;;;;;;;8.77;1.88;;;;;;;30.73;36.00;101344.25;5225192;28;20968;-62
2022/06/09 07:57:56;;;;;;;11.00;2.25;;;;;;;30.78;36.26;101352.47;5222151;28;20439;-60
2022/06/09 08:00:28;;;;;;;8.53;1.77;;;;;;;30.90;36.27;101359.53;5221630;28;20495;-60
2022/06/09 08:03:04;;;;;;;8.35;1.88;;;;;;;30.77;36.13;101345.34;5210133;28;20407;-58
2022/06/09 08:05:36;;;;;;;11.20;2.25;;;;;;;30.90;36.20;101356.81;5221315;28;20430;-58
2022/06/09 08:08:09;;;;;;;12.95;2.90;;;;;;;30.97;36.26;101354.59;5221905;28;20446;-56
2022/06/09 08:10:42;;;;;;;7.57;1.80;;;;;;;30.90;36.20;101354.88;5224973;28;20431;-59
2022/06/09 08:13:17;;;;;;;9.13;1.75;;;;;;;30.59;36.15;101345.88;5213798;28;20951;-59
2022/06/09 08:15:49;;;;;;;6.85;2.05;;;;;;;30.59;36.31;101364.94;5227012;28;20782;-61
2022/06/09 08:18:22;;;;;;;10.05;2.25;;;;;;;30.59;36.49;101378.56;5221197;28;20404;-62
2022/06/09 08:20:54;;;;;;;7.85;1.60;;;;;;;30.69;36.38;101381.34;5222842;28;20412;-61
2022/06/09 08:23:30;;;;;;;8.30;2.15;;;;;;;30.61;36.20;101389.22;5219877;28;20758;-60
2022/06/09 08:26:03;;;;;;;5.85;1.80;;;;;;;30.47;36.14;101394.38;5220520;28;20423;-61
2022/06/09 08:28:36;;;;;;;6.97;2.13;;;;;;;30.55;36.05;101393.84;5222231;28;20702;-58
2022/06/09 08:31:09;;;;;;;8.85;2.33;;;;;;;30.61;36.14;101406.41;5212843;28;20500;-59
2022/06/09 08:33:41;;;;;;;7.73;1.83;;;;;;;30.54;35.76;101395.75;5223082;28;20499;-61
2022/06/09 08:36:14;;;;;;;10.95;2.00;;;;;;;30.44;35.89;101408.53;5225436;28;20428;-60
2022/06/09 08:38:48;;;;;;;5.32;1.52;;;;;;;30.18;35.98;101403.00;5226526;28;20419;-60
2022/06/09 08:41:42;;;;;;;4.95;1.35;;;;;;;29.91;35.93;101386.00;5225053;28;20931;-59
2022/06/09 08:44:30;;;;;;;10.57;1.92;;;;;;;29.69;36.35;101416.94;5220306;28;20427;-58
2022/06/09 08:47:12;;;;;;;6.03;1.60;;;;;;;29.43;36.22;101418.66;5217903;28;20490;-61
2022/06/09 08:50:08;;;;;;;11.48;2.13;;;;;;;29.14;36.35;101423.59;5218332;28;20423;-61
2022/06/09 08:52:48;;;;;;;10.80;2.08;;;;;;;28.88;36.48;101403.50;5219533;28;20412;-60
2022/06/09 08:55:37;;;;;;;7.00;2.30;;;;;;;28.92;36.18;101424.47;5222862;28;21670;-59
2022/06/09 08:58:24;;;;;;;13.17;2.07;;;;;;;28.86;36.04;101413.81;5218530;28;20415;-60
2022/06/09 09:01:06;;;;;;;6.38;1.50;;;;;;;28.81;35.86;101433.63;5221703;28;20414;-60
2022/06/09 09:03:43;;;;;;;11.05;2.55;;;;;;;28.83;35.87;101436.06;5217301;28;20448;-58
2022/06/09 09:06:25;;;;;;;12.68;2.20;;;;;;;28.66;35.83;101430.75;5216434;28;20508;-58
2022/06/09 09:09:06;;;;;;;13.60;1.98;;;;;;;28.34;36.05;101445.06;5219189;28;21202;-59
2022/06/09 09:11:53;;;;;;;13.18;2.03;;;;;;;28.10;36.10;101433.63;5219327;28;20578;-57
2022/06/09 09:14:33;;;;;;;11.85;2.25;;;;;;;28.05;36.05;101434.38;5215707;28;20907;-59
2022/06/09 09:17:19;;;;;;;11.75;1.98;;;;;;;28.20;35.77;101449.22;5216664;28;20419;-58
2022/06/09 09:19:57;;;;;;;13.20;2.63;;;;;;;28.29;35.64;101442.28;5216506;28;20423;-60
2022/06/09 09:22:37;;;;;;;10.00;2.25;;;;;;;28.31;35.62;101442.00;5218089;28;20852;-59
2022/06/09 09:25:23;;;;;;;16.15;2.75;;;;;;;28.32;35.53;101447.19;5217918;28;20439;-59
2022/06/09 09:28:05;;;;;;;12.38;2.53;;;;;;;28.20;35.50;101443.78;5219411;28;20416;-58
2022/06/09 09:30:42;;;;;;;30.80;4.70;;;;;;;28.14;35.57;101467.34;5217941;28;20510;-60
2022/06/09 09:33:19;;;;;;;23.93;3.63;;;;;;;28.01;35.68;101468.53;5218090;28;20981;-58
2022/06/09 09:35:59;;;;;;;11.38;2.40;;;;;;;27.89;35.76;101464.28;5215950;28;20412;-59
2022/06/09 09:38:40;;;;;;;12.18;3.00;;;;;;;27.87;35.54;101456.38;5213290;27;20524;-56
2022/06/09 09:41:29;;;;;;;9.02;3.85;;;;;;;28.10;35.47;101474.34;5217953;28;20993;-56
2022/06/09 09:44:13;;;;;;;11.40;4.03;;;;;;;28.09;35.50;101470.00;5203878;28;20435;-53
2022/06/09 09:46:50;;;;;;;21.80;3.40;;;;;;;28.17;35.46;101493.19;5217647;28;20414;-59
2022/06/09 09:49:29;;;;;;;9.60;2.47;;;;;;;28.05;35.45;101494.09;5218347;28;20784;-57
2022/06/09 09:52:22;;;;;;;8.95;2.28;;;;;;;28.05;35.62;101502.25;5214479;28;20422;-60
2022/06/09 09:54:54;;;;;;;11.50;2.83;;;;;;;28.07;35.61;101507.44;5214810;28;20505;-58
2022/06/09 09:57:28;;;;;;;9.18;2.03;;;;;;;28.20;35.62;101514.41;5222172;28;20883;-59
2022/06/09 10:00:00;;;;;;;14.35;2.78;;;;;;;28.23;35.38;101493.00;5217385;28;20408;-57
2022/06/09 10:08:39;;;;;;;10.57;2.25;;;;;;;28.53;35.46;101509.97;5218185;28;20416;-57
2022/06/09 10:14:34;;;;;;;15.20;2.65;;;;;;;28.33;35.54;101535.75;5217805;28;20403;-57
2022/06/09 10:17:19;;;;;;;13.07;2.65;;;;;;;28.30;35.69;101536.25;5218272;28;20412;-56
2022/06/09 10:19:59;;;;;;;11.53;3.10;;;;;;;28.08;35.78;101538.94;5220245;28;20483;-58
2022/06/09 10:22:35;;;;;;;12.20;2.47;;;;;;;27.85;35.99;101534.56;5222062;28;20419;-57
2022/06/09 10:25:23;;;;;;;9.00;2.38;;;;;;;27.76;36.12;101541.44;5226444;28;20487;-56
2022/06/09 10:28:04;;;;;;;7.60;2.33;;;;;;;27.76;35.97;101549.56;5223722;28;20419;-57
2022/06/09 10:30:44;;;;;;;7.75;2.17;;;;;;;27.74;36.06;101543.56;5223402;28;20430;-59
2022/06/09 10:33:27;;;;;;;11.40;2.75;;;;;;;27.85;35.98;101550.84;5225993;28;20411;-58
2022/06/09 10:36:07;;;;;;;11.75;2.22;;;;;;;27.79;35.93;101540.97;5223741;28;20507;-54
2022/06/09 10:38:47;;;;;;;17.58;2.85;;;;;;;27.95;35.94;101564.56;5221963;28;20500;-57
2022/06/09 10:41:31;;;;;;;7.85;2.38;;;;;;;27.97;35.85;101567.03;5220939;28;22325;-54
2022/06/09 10:44:10;;;;;;;15.10;3.05;;;;;;;27.81;35.81;101538.81;5217018;28;20895;-57
2022/06/09 10:55:14;;;;;;;18.85;3.22;;;;;;;27.85;35.76;101537.25;5218783;28;20446;-55
2022/06/09 10:55:44;;;;;;;10.38;2.63;;;;;;;27.72;35.99;101572.88;5225706;28;20884;-57
2022/06/09 10:58:26;;;;;;;10.20;2.90;;;;;;;27.83;35.87;101569.25;5228673;28;20588;-59
2022/06/09 11:01:01;;;;;;;9.05;2.50;;;;;;;28.07;35.63;101579.94;5227098;28;20473;-58
2022/06/09 11:03:42;;;;;;;12.63;2.67;;;;;;;28.07;35.47;101588.09;5226198;28;20410;-58
2022/06/09 11:06:27;;;;;;;10.75;2.67;;;;;;;28.14;35.55;101591.44;5223573;28;20506;-56
2022/06/09 11:09:18;;;;;;;9.37;2.50;;;;;;;28.09;35.54;101580.50;5222086;28;20467;-58
2022/06/09 11:12:07;;;;;;;18.88;3.30;;;;;;;28.16;35.46;101601.00;5224251;28;20441;-57
2022/06/09 11:15:05;;;;;;;10.20;2.88;;;;;;;28.20;35.59;101595.88;5219937;28;20426;-55
2022/06/09 11:18:03;;;;;;;16.45;3.13;;;;;;;28.13;35.66;101597.97;5215304;28;20415;-57
2022/06/09 11:21:00;;;;;;;13.60;3.25;;;;;;;28.11;35.68;101602.81;5219247;28;20438;-56
2022/06/09 11:23:56;;;;;;;13.02;3.45;;;;;;;28.03;35.80;101596.72;5220189;28;20422;-56
2022/06/09 11:26:38;;;;;;;12.60;2.88;;;;;;;28.03;36.01;101596.72;5220204;28;20423;-56
2022/06/09 11:29:34;;;;;;;11.18;2.65;;;;;;;28.00;36.00;101613.53;5219173;28;20411;-53
2022/06/09 11:32:15;;;;;;;11.25;2.22;;;;;;;28.02;35.81;101605.94;5220858;28;20422;-55
2022/06/09 11:35:12;;;;;;;10.60;2.45;;;;;;;28.03;35.77;101604.88;5222364;28;20432;-56
2022/06/09 11:38:10;;;;;;;12.15;2.20;;;;;;;27.94;35.79;101600.94;5222236;28;20434;-55
2022/06/09 11:40:48;;;;;;;8.23;2.35;;;;;;;27.82;35.73;101600.19;5223261;28;20468;-57
2022/06/09 11:43:41;;;;;;;8.57;2.33;;;;;;;27.93;35.62;101601.97;5221244;28;23409;-58
2022/06/09 11:46:20;;;;;;;15.48;2.40;;;;;;;28.06;35.53;101600.84;5222603;28;20930;-58
2022/06/09 11:48:57;;;;;;;12.73;2.38;;;;;;;28.18;35.20;101611.59;5222408;28;20403;-56
2022/06/09 11:51:32;;;;;;;17.73;2.90;;;;;;;28.24;35.34;101616.03;5221782;28;20450;-59
2022/06/09 11:54:08;;;;;;;12.55;2.58;;;;;;;28.31;35.25;101611.28;5221129;28;20475;-57
2022/06/09 11:56:43;;;;;;;9.23;2.05;;;;;;;28.29;35.16;101618.84;5221508;28;20787;-57
2022/06/09 11:59:20;;;;;;;14.00;2.10;;;;;;;28.30;35.00;101615.03;5222081;28;20420;-55
2022/06/09 12:02:22;;;;;;;8.80;2.47;;;;;;;28.30;34.95;101617.75;5222317;28;20430;-55
2022/06/09 12:05:28;;;;;;;10.17;2.13;;;;;;;28.24;34.97;101624.19;5221915;28;20419;-55
2022/06/09 12:08:18;;;;;;;9.65;2.17;;;;;;;28.23;34.97;101619.84;5222858;28;20885;-59
2022/06/09 12:11:14;;;;;;;12.63;2.72;;;;;;;28.26;34.75;101611.19;5235960;28;20408;-56
2022/06/09 12:14:03;;;;;;;8.75;2.38;;;;;;;28.28;34.66;101619.91;5221253;28;20409;-54
2022/06/09 12:16:40;;;;;;;12.75;2.65;;;;;;;28.11;34.77;101619.91;5218467;28;20427;-53
2022/06/09 12:19:35;;;;;;;8.63;1.88;;;;;;;28.07;34.92;101624.22;5222054;28;20446;-55
2022/06/09 12:22:47;;;;;;;11.88;2.72;;;;;;;28.12;34.79;101632.44;5217928;28;20418;-56
2022/06/09 12:25:32;;;;;;;13.77;3.00;;;;;;;28.07;34.89;101620.69;5218789;28;20424;-57
2022/06/09 12:28:47;;;;;;;13.05;2.17;;;;;;;28.07;34.85;101635.06;5218452;28;20428;-55
2022/06/09 12:31:22;;;;;;;6.50;1.90;;;;;;;28.01;34.71;101626.03;5219805;28;20492;-54
2022/06/09 12:34:00;;;;;;;9.43;2.47;;;;;;;28.21;34.77;101639.09;5222010;28;20555;-52